aviador You're here:

LETU Decoded Metar

in
Report Time2017-11-18 13:30:00
UTC Time2017-11-18 14:07:26
Flight Rules vfr VFR
Wind310° at 13 kt
W.Rank310° ranks 1
Current wind is above 310° avg. (10.0)
Visibility9999 m
Phenomena:N/A
Clouds:N/A
Expected CloudBase > 4,400 ft AGL from Temp-Dew spread
CeilingNone
Temp16°C
Dew Point05°C (48% RH)
AAT10.2°C
QNH1021 hPa
Raw Report
METAR LETU 181330Z AUTO 31013KT 9999 NCD 16/05 Q1021=####018000243####
SARE20 FMEE 181330

Extra information for LETU:More info

Social comments